Kezdőlap
METAR-TAF:

METAR-TAF

Repülőterek :

Sint Eustatius, Holland Antillák

földrajzi szélesség: 17-29N, földrajzi hosszúság: 062-59W, magasság: 38 m

Jelenlegi meteorológiai megfigyelések

A jelentés 31 perccel ezelõtt készült, 02:55 UTC
Keleti szél 13 kt, északkeleti és kelet-délkeleti között változik
Hőmérséklet 28°C
Páratartalom 79%
Légköri nyomás 1016 hPa

METAR: TNCE 130255Z AUTO 08013KT 050V110 //// // ///////// 28/24 Q1016 RE//

Idő: 23:26 (03:26 UTC)


TAF: hiányzik

Meteorológiai megfigyelések és előrejelzések több, mint 4000 repülőtéren (METAR és TAF jelentéseket).

A térképen piros és sárga pontok jelzik az elérhető meteorológiai állomásokat.

Mozgassa az egeret a pont fölött, hogy megjelenjen az állomás neve.

Azután kattintson az időjárási megfigyelések és előrejelzések megtekintéséhez.

A térkép megváltoztatása: kattintson a fekete keresztel jelölt zöld gombra ráközelítéshez, a vonallal jelölt zöld gombra távolításhoz, vagy a zöld nyilakra a szomszédos térképek eléréséhez.


METAR-TAF: